Amsterdam Airport Schiphol

EHAM · Holanda Septentrional, Países Bajos

METAR pasados EHAM · Aeropuerto de Ámsterdam-Schiphol

A continuación puedes ver los METAR de los últimos días. Selecciona un año para ver los METAR más antiguos, desde el año 2007 en adelante.

23 de abril de 2024

Hora Código Tiempo Temp. Visibilidad Cielo nuboso Viento METAR/SPECI
02:55
V
2 °C 10 km+ - 010° 010° 3 kt METAR EHAM 230055Z 01003KT 9999 FEW040 02/M01 Q1023 NOSIG
02:25
V
2 °C 10 km+ - 360° 360° 3 kt METAR EHAM 230025Z 36003KT 9999 FEW040 02/M01 Q1024 NOSIG
01:55
V
4 °C 10 km+ - 020° 020° 4 kt METAR EHAM 222355Z 02004KT 9999 FEW040 04/M02 Q1024 NOSIG
01:25
V
3 °C 10 km+ - 020° 020° 5 kt METAR EHAM 222325Z 02005KT 350V050 9999 FEW040 03/M02 Q1024 NOSIG
00:55
V
4 °C 10 km+ - 020° 020° 6 kt METAR EHAM 222255Z 02006KT 350V070 9999 FEW040 04/M02 Q1024 NOSIG
00:25
V
4 °C 10 km+ - 020° 020° 6 kt METAR EHAM 222225Z 02006KT CAVOK 04/M02 Q1024 NOSIG

22 de abril de 2024

Hora Código Tiempo Temp. Visibilidad Cielo nuboso Viento METAR/SPECI
23:55
V
4 °C 10 km+ - 020° 020° 6 kt METAR EHAM 222155Z 02006KT 340V050 CAVOK 04/M02 Q1024 NOSIG
23:25
V
5 °C 10 km+ - 020° 020° 7 kt METAR EHAM 222125Z 02007KT 350V050 9999 FEW040 05/M02 Q1024 NOSIG
22:55
V
5 °C 10 km+ - 020° 020° 6 kt METAR EHAM 222055Z 02006KT 350V050 9999 FEW040 05/M02 Q1024 NOSIG
22:25
V
5 °C 10 km+ - 020° 020° 6 kt METAR EHAM 222025Z 02006KT 350V050 9999 FEW040 05/M02 Q1024 NOSIG
21:55
V
5 °C 10 km+ - 020° 020° 8 kt METAR EHAM 221955Z 02008KT 340V050 9999 FEW040 05/M03 Q1024 NOSIG
21:25
V
6 °C 10 km+ - 030° 030° 8 kt METAR EHAM 221925Z 03008KT 350V060 CAVOK 06/M03 Q1024 NOSIG
20:55
V
6 °C 10 km+ - 040° 040° 9 kt METAR EHAM 221855Z 04009KT 360V070 CAVOK 06/M04 Q1024 NOSIG
20:25
V
7 °C 10 km+ - 040° 040° 11 kt METAR EHAM 221825Z 04011KT 010V080 CAVOK 07/M04 Q1024 NOSIG
19:55
V
8 °C 10 km+ - 040° 040° 12 kt METAR EHAM 221755Z 04012KT 350V070 CAVOK 08/M03 Q1024 NOSIG
19:25
V
8 °C 10 km+ - 030° 030° 11 kt METAR EHAM 221725Z 03011KT 340V070 CAVOK 08/M05 Q1024 NOSIG
18:55
V
8 °C 10 km+ - 040° 040° 12 kt METAR EHAM 221655Z 04012KT 010V080 CAVOK 08/M05 Q1024 NOSIG
18:25
V
9 °C 10 km+ - 050° 050° 12 kt METAR EHAM 221625Z 05012KT 010V070 CAVOK 09/M04 Q1024 NOSIG
17:55
V
8 °C 10 km+ - 040° 040° 9 kt METAR EHAM 221555Z 04009KT 350V080 9999 FEW042 08/M02 Q1024 NOSIG
17:25
V
8 °C 10 km+ - 040° 040° 12 kt METAR EHAM 221525Z 04012KT 360V060 9999 FEW042 08/M00 Q1024 NOSIG
16:55
V
10 °C 10 km+ - 030° 030° 12 kt METAR EHAM 221455Z 03012KT 360V070 9999 VCSH FEW038TCU 10/01 Q1024 NOSIG
16:25
V
10 °C 10 km+ - 040° 040° 10 kt METAR EHAM 221425Z 04010KT 360V100 9999 VCSH FEW038TCU 10/M01 Q1024 NOSIG
15:55
V
10 °C 10 km+ - 040° 040° 11 kt METAR EHAM 221355Z 04011KT 360V080 9999 VCSH FEW038TCU SCT042 10/M01 Q1024 NOSIG
15:25
V
10 °C 10 km+ - 040° 040° 12 kt METAR EHAM 221325Z 04012KT 360V080 9999 VCSH FEW035TCU SCT040 10/00 Q1024 NOSIG
14:55
V
9 °C 10 km+ - 060° 060° 12 kt METAR EHAM 221255Z 06012KT 030V100 9999 VCSH FEW035TCU SCT040 09/00 Q1025 NOSIG
14:25
V
9 °C 10 km+ - 040° 040° 10 kt METAR EHAM 221225Z 04010KT 9999 -SHRA FEW030 FEW038TCU SCT041 09/00 Q1025 NOSIG
13:55
V
10 °C 10 km+ - 050° 050° 9 kt METAR EHAM 221155Z 05009KT 030V100 9999 FEW027 FEW038TCU SCT042 10/02 Q1025 NOSIG
13:25
V
10 °C 10 km+ - 050° 050° 10 kt METAR EHAM 221125Z 05010KT 010V090 9999 FEW029TCU SCT038 10/01 Q1025 NOSIG
12:55
V
8 °C 10 km+ - 040° 040° 9 kt METAR EHAM 221055Z 04009KT 330V080 9999 -SHRAGS FEW021 FEW040CB 08/03 Q1025 BECMG NSW FEW030
12:25
V
9 °C 10 km+ - 030° 030° 9 kt METAR EHAM 221025Z 03009KT 340V070 9999 -SHRA FEW028 FEW040TCU 09/03 Q1025 NOSIG
11:55
V
10 °C 10 km+ - 020° 020° 9 kt METAR EHAM 220955Z 02009KT 330V060 9999 FEW028 FEW040TCU 10/04 Q1026 NOSIG
11:25
V
8 °C 10 km+ - 040° 040° 4 kt METAR EHAM 220925Z 04004KT 340V090 9999 FEW022 FEW037TCU 08/03 Q1026 NOSIG
10:55
V
7 °C 10 km+ - 030° 030° 7 kt METAR EHAM 220855Z 03007KT 350V060 9999 -SHRA FEW019 FEW037CB 07/02 Q1026 NOSIG
10:25
V
6 °C 10 km+ - 030° 030° 11 kt METAR EHAM 220825Z 03011KT 350V060 9999 -SHRA FEW025 FEW037CB 06/01 Q1026 NOSIG
09:55
V
7 °C 10 km+ - 350° 350° 5 kt METAR EHAM 220755Z 35005KT 9999 FEW027 FEW030CB 07/04 Q1026 TEMPO 7000 -SHRA
09:25
V
6 °C 10 km+ - 340° 340° 3 kt METAR EHAM 220725Z 34003KT 9999 FEW029 06/04 Q1026 TEMPO 7000 -SHRA FEW030TCU
08:55
V
6 °C 10 km+ - 320° 320° 4 kt METAR EHAM 220655Z 32004KT 9999 FEW029 06/03 Q1026 TEMPO 7000 -SHRA FEW030TCU
08:25
V
5 °C 10 km+ - 320° 320° 3 kt METAR EHAM 220625Z 32003KT 9999 FEW035 05/02 Q1026 NOSIG
07:55
V
4 °C 10 km+ - 300° 300° 4 kt METAR EHAM 220555Z 30004KT 9999 FEW033 04/02 Q1026 NOSIG
07:25
V
3 °C 10 km+ - 300° 300° 4 kt METAR EHAM 220525Z 30004KT 9999 FEW032 03/01 Q1026 NOSIG
06:55
V
2 °C 10 km+ - 300° 300° 5 kt METAR EHAM 220455Z 30005KT 9999 FEW033 02/01 Q1026 NOSIG
06:25
V
4 °C 10 km+ - Var Var 2 kt METAR EHAM 220425Z VRB02KT CAVOK 04/01 Q1026 NOSIG
05:55
V
5 °C 10 km+ - Var Var 2 kt METAR EHAM 220355Z VRB02KT CAVOK 05/01 Q1026 NOSIG
05:25
V
5 °C 10 km+ - 010° 010° 3 kt METAR EHAM 220325Z 01003KT CAVOK 05/02 Q1027 NOSIG
04:55
V
5 °C 10 km+ - 340° 340° 5 kt METAR EHAM 220255Z 34005KT CAVOK 05/02 Q1027 NOSIG
04:25
V
5 °C 10 km+ - 010° 010° 5 kt METAR EHAM 220225Z 01005KT 9999 FEW031 05/02 Q1027 NOSIG
03:55
V
4 °C 10 km+ - 350° 350° 4 kt METAR EHAM 220155Z 35004KT 9999 FEW031 04/02 Q1027 NOSIG
03:25
V
3 °C 10 km+ - 340° 340° 4 kt METAR EHAM 220125Z 34004KT 9999 VCSH FEW025TCU 03/02 Q1027 NOSIG
02:55
V
2 °C 10 km+ - 330° 330° 4 kt METAR EHAM 220055Z 33004KT 9999 FEW033 02/01 Q1027 NOSIG
02:25
V
2 °C 10 km+ - 340° 340° 4 kt METAR EHAM 220025Z 34004KT 9999 FEW036 02/01 Q1028 NOSIG
01:55
V
2 °C 10 km+ - 340° 340° 4 kt METAR EHAM 212355Z 34004KT CAVOK 02/01 Q1028 NOSIG
01:25
V
3 °C 10 km+ - 330° 330° 5 kt METAR EHAM 212325Z 33005KT CAVOK 03/01 Q1028 NOSIG
00:55
L
3 °C 10 km+ - 320° 320° 5 kt METAR EHAM 212255Z 32005KT 9999 VV/// 03/01 Q1028 NOSIG
00:25
V
4 °C 10 km+ - 350° 350° 5 kt METAR EHAM 212225Z 35005KT CAVOK 04/01 Q1028 NOSIG

21 de abril de 2024

Hora Código Tiempo Temp. Visibilidad Cielo nuboso Viento METAR/SPECI
23:55
V
5 °C 10 km+ - 360° 360° 6 kt METAR EHAM 212155Z 36006KT CAVOK 05/01 Q1028 NOSIG
23:25
V
6 °C 10 km+ - 020° 020° 7 kt METAR EHAM 212125Z 02007KT 330V040 CAVOK 06/02 Q1028 NOSIG
22:55
V
6 °C 10 km+ - 010° 010° 7 kt METAR EHAM 212055Z 01007KT 340V050 9999 FEW034 06/02 Q1028 NOSIG
22:25
V
7 °C 10 km+ - 020° 020° 8 kt METAR EHAM 212025Z 02008KT 350V050 9999 FEW025 07/02 Q1028 NOSIG
21:55
V
7 °C 10 km+ - 020° 020° 10 kt METAR EHAM 211955Z 02010KT 9999 FEW025 07/02 Q1028 NOSIG
21:25
V
7 °C 10 km+ - 030° 030° 10 kt METAR EHAM 211925Z 03010KT 360V060 9999 VCSH FEW027TCU 07/02 Q1027 NOSIG
20:55
V
8 °C 10 km+ - 030° 030° 12 kt METAR EHAM 211855Z 03012KT 340V060 9999 VCSH FEW027TCU 08/03 Q1027 NOSIG
20:25
V
8 °C 10 km+ - 010° 010° 4 kt METAR EHAM 211825Z 01004KT 330V050 9999 VCSH FEW027TCU 08/04 Q1027 NOSIG
19:55
V
6 °C 10 km+ - 010° 010° 4 kt METAR EHAM 211755Z 01004KT 340V050 9999 VCSH FEW027CB 06/04 Q1027 BECMG FEW035
19:25
V
7 °C 10 km+ - 050° 050° 3 kt METAR EHAM 211725Z 05003KT 360V100 9999 -SHRA FEW027CB SCT035 07/04 Q1027 NOSIG
18:55
V
8 °C 10 km+ - 060° 060° 16 kt METAR EHAM 211655Z 06016KT 020V100 9999 VCSH FEW027CB SCT030 08/03 Q1026 NOSIG
18:25
V
10 °C 10 km+ - 020° 020° 11 kt METAR EHAM 211625Z 02011KT 340V070 9999 VCSH FEW018 FEW028CB 10/03 Q1026 NOSIG
17:55
V
9 °C 10 km+ - 010° 010° 11 kt METAR EHAM 211555Z 01011KT 330V050 9999 -SHRA FEW018 FEW032CB 09/03 Q1026 BECMG FEW030
17:25
V
10 °C 10 km+ - 040° 040° 11 kt METAR EHAM 211525Z 04011KT 360V080 9999 VCSH FEW018 FEW032CB 10/03 Q1026 BECMG FEW030
16:55
V
11 °C 10 km+ - 030° 030° 10 kt METAR EHAM 211455Z 03010KT 320V070 9999 VCSH FEW032CB 11/02 Q1026 TEMPO 6000 SHRA
16:25
V
10 °C 10 km+ - 020° 020° 10 kt METAR EHAM 211425Z 02010KT 340V050 9999 FEW032CB 10/03 Q1026 TEMPO 6000 SHRA
15:55
V
12 °C 10 km+ - 360° 360° 9 kt METAR EHAM 211355Z 36009KT 310V080 9999 -SHRA FEW032CB SCT037 12/03 Q1026 TEMPO FM1430 6000 SHRAGS
15:25
V
10 °C 10 km+ - 070° 070° 8 kt METAR EHAM 211325Z 07008KT 360V110 9999 FEW038TCU 10/M00 Q1026 TEMPO FM1430 6000 SHRAGS SCT025CB
14:55
V
10 °C 10 km+ - 060° 060° 10 kt METAR EHAM 211255Z 06010KT 030V100 9999 FEW035TCU SCT036 10/00 Q1026 NOSIG
14:25
V
10 °C 10 km+ - 040° 040° 12 kt METAR EHAM 211225Z 04012KT 010V070 9999 SCT032 10/03 Q1026 NOSIG
13:55
V
10 °C 10 km+ - 040° 040° 12 kt METAR EHAM 211155Z 04012KT 360V110 9999 SCT030 10/02 Q1026 NOSIG
13:25
V
9 °C 10 km+ - 040° 040° 10 kt METAR EHAM 211125Z 04010KT 360V070 9999 SCT027 09/03 Q1026 NOSIG
12:55
V
9 °C 10 km+ - 040° 040° 13 kt METAR EHAM 211055Z 04013KT 360V070 9999 SCT027 09/03 Q1026 NOSIG
12:25
V
7 °C 10 km+ - 030° 030° 13 kt METAR EHAM 211025Z 03013KT 360V070 9999 FEW023 SCT028 07/02 Q1026 NOSIG
11:55
V
8 °C 10 km+ - 040° 040° 13 kt METAR EHAM 210955Z 04013KT 360V090 9999 SCT030 08/02 Q1026 NOSIG
11:25
V
8 °C 10 km+ - 030° 030° 12 kt METAR EHAM 210925Z 03012KT 360V080 9999 FEW029 08/02 Q1025 NOSIG
10:55
V
8 °C 10 km+ - 040° 040° 15 kt METAR EHAM 210855Z 04015KT 9999 FEW028 08/02 Q1025 NOSIG
10:25
V
8 °C 10 km+ - 040° 040° 14 kt METAR EHAM 210825Z 04014KT 010V070 9999 FEW025 08/02 Q1025 NOSIG
09:55
V
7 °C 10 km+ - 050° 050° 15 kt METAR EHAM 210755Z 05015KT 010V080 9999 FEW024 07/02 Q1024 NOSIG
09:25
V
7 °C 10 km+ - 040° 040° 15 kt METAR EHAM 210725Z 04015KT 360V080 9999 FEW022 07/02 Q1024 NOSIG
08:55
V
6 °C 10 km+ - 050° 050° 16 kt METAR EHAM 210655Z 05016KT 010V080 9999 FEW020 06/02 Q1024 NOSIG
08:25
V
6 °C 10 km+ - 040° 040° 15 kt METAR EHAM 210625Z 04015KT 350V060 9999 FEW012 06/02 Q1023 NOSIG
07:55
V
5 °C 10 km+ - 030° 030° 14 kt METAR EHAM 210555Z 03014KT 350V060 9999 FEW010 05/02 Q1022 NOSIG
07:25
V
5 °C 10 km+ - 020° 020° 12 kt METAR EHAM 210525Z 02012KT 340V060 9999 FEW024 05/02 Q1022 NOSIG
06:55
V
4 °C 10 km+ - 010° 010° 10 kt METAR EHAM 210455Z 01010KT 320V060 9999 FEW024 04/02 Q1022 NOSIG
06:25
V
4 °C 10 km+ - 360° 360° 11 kt METAR EHAM 210425Z 36011KT 320V050 9999 FEW024 04/02 Q1021 NOSIG
05:55
V
3 °C 10 km+ - 350° 350° 7 kt METAR EHAM 210355Z 35007KT 9999 FEW025 03/02 Q1021 NOSIG
05:25
V
3 °C 10 km+ - 340° 340° 8 kt METAR EHAM 210325Z 34008KT 310V010 9999 VCSH FEW014 FEW025CB 03/01 Q1021 RESHRA NOSIG
04:55
M
3 °C 5 km - 360° 360° 17 - 29 kt METAR EHAM 210255Z 36017G29KT 330V050 5000 SHRAGS FEW011 SCT018 SCT025CB 03/02 Q1022 BECMG 34012KT 9999 NSW
04:25
V
4 °C 10 km+ - 310° 310° 9 kt METAR EHAM 210225Z 31009KT 9999 FEW025CB 04/02 Q1021 TEMPO 36025G35KT 6000 SHRA
03:55
V
4 °C 10 km+ - 320° 320° 10 kt METAR EHAM 210155Z 32010KT 9999 FEW025 04/01 Q1022 TEMPO 36020G30KT 6000 SHRA SCT025CB
03:25
V
4 °C 10 km+ - 340° 340° 9 kt METAR EHAM 210125Z 34009KT 300V010 9999 FEW023 04/01 Q1022 TEMPO 36020G30KT 6000 SHRA SCT025CB
02:55
V
4 °C 10 km+ - 330° 330° 10 kt METAR EHAM 210055Z 33010KT 300V360 9999 FEW012 FEW020CB 04/00 Q1022 TEMPO 36020G30KT -SHRA
02:25
V
5 °C 10 km+ - 330° 330° 16 kt METAR EHAM 210025Z 33016KT 9999 -SHRA FEW012 FEW020CB 05/01 Q1023 TEMPO 34012KT
01:55
V
5 °C 10 km+ - 330° 330° 10 kt METAR EHAM 202355Z 33010KT 310V010 9999 VCSH FEW015 FEW020CB 05/02 Q1023 TEMPO 36018G28KT -SHRA
01:25
V
5 °C 10 km+ - 330° 330° 5 kt METAR EHAM 202325Z 33005KT 9999 -SHRA FEW020 FEW025TCU SCT030 05/02 Q1023 NOSIG
00:55
V
5 °C 10 km+ - 320° 320° 6 kt METAR EHAM 202255Z 32006KT 9999 VCSH FEW020 FEW025TCU 05/02 Q1024 NOSIG
00:25
V
5 °C 10 km+ - 340° 340° 12 - 22 kt METAR EHAM 202225Z 34012G22KT 310V010 9999 -SHRA FEW016 FEW020TCU SCT025 05/02 Q1024 NOSIG

20 de abril de 2024

Hora Código Tiempo Temp. Visibilidad Cielo nuboso Viento METAR/SPECI
23:55
V
6 °C 10 km+ - 330° 330° 12 kt METAR EHAM 202155Z 33012KT 300V010 9999 -SHRA FEW019 FEW025TCU 06/01 Q1024 NOSIG
23:25
V
6 °C 10 km+ - 330° 330° 9 kt METAR EHAM 202125Z 33009KT 9999 VCSH FEW020 FEW025TCU 06/01 Q1024 NOSIG
22:55
V
6 °C 10 km+ - 340° 340° 8 kt METAR EHAM 202055Z 34008KT 310V010 9999 FEW025 SCT030 06/02 Q1024 NOSIG
22:25
V
6 °C 10 km+ - 350° 350° 10 kt METAR EHAM 202025Z 35010KT 320V020 9999 FEW030 06/02 Q1024 NOSIG
21:55
V
7 °C 10 km+ - 330° 330° 10 kt METAR EHAM 201955Z 33010KT 310V010 9999 SCT045 07/M00 Q1024 NOSIG
21:25
V
7 °C 10 km+ 4.200 ft 350° 350° 10 kt METAR EHAM 201925Z 35010KT 310V010 9999 FEW025 BKN042 07/02 Q1024 NOSIG
20:55
V
7 °C 10 km+ 4.200 ft 340° 340° 11 kt METAR EHAM 201855Z 34011KT 320V030 9999 FEW022 BKN042 07/03 Q1024 NOSIG
20:25
V
7 °C 10 km+ 3.200 ft 330° 330° 17 kt METAR EHAM 201825Z 33017KT 310V010 9999 -SHRA FEW017 SCT022CB BKN032 07/03 Q1024 NOSIG
19:55
V
8 °C 10 km+ - 350° 350° 15 kt METAR EHAM 201755Z 35015KT 320V040 9999 VCSH FEW017 FEW022CB SCT045 08/03 Q1023 NOSIG
19:25
V
9 °C 10 km+ - 350° 350° 16 kt METAR EHAM 201725Z 35016KT 310V020 9999 FEW017 FEW022CB 09/04 Q1023 NOSIG
18:55
V
8 °C 10 km+ - 350° 350° 15 kt METAR EHAM 201655Z 35015KT 310V040 9999 -SHRA FEW017 FEW022CB SCT025 08/05 Q1023 NOSIG
18:25
V
9 °C 10 km+ - 340° 340° 15 - 28 kt METAR EHAM 201625Z 34015G28KT 310V020 9999 FEW017 FEW022CB SCT025 09/04 Q1023 NOSIG
17:55
V
8 °C 10 km+ 4.500 ft 340° 340° 19 kt METAR EHAM 201555Z 34019KT 310V020 9999 -SHRA FEW015 FEW020CB BKN045 08/05 Q1023 NOSIG
17:25
V
8 °C 10 km+ 3.500 ft 340° 340° 17 kt METAR EHAM 201525Z 34017KT 310V010 9999 -SHRA FEW015 FEW020CB BKN035 08/05 Q1022 NOSIG
16:55
V
10 °C 10 km+ - 330° 330° 20 - 30 kt METAR EHAM 201455Z 33020G30KT 300V010 9999 FEW015 FEW020CB SCT025 10/05 Q1022 NOSIG
16:25
M
10 °C 10 km+ 2.500 ft 330° 330° 18 kt METAR EHAM 201425Z 33018KT 300V360 9999 FEW015 FEW020CB BKN025 10/06 Q1022 NOSIG
15:55
V
9 °C 10 km+ - 320° 320° 20 - 31 kt METAR EHAM 201355Z 32020G31KT 290V350 9999 -SHRA FEW015 SCT020CB 09/06 Q1022 TEMPO 7000
15:25
V
10 °C 10 km+ - 320° 320° 20 kt METAR EHAM 201325Z 32020KT 9999 VCSH FEW012 FEW020CB SCT022 10/07 Q1022 TEMPO 7000 -SHRA
14:55
V
10 °C 10 km+ - 320° 320° 18 kt METAR EHAM 201255Z 32018KT 280V340 9999 VCSH FEW012 FEW020CB SCT022 10/06 Q1022 TEMPO 7000 -SHRA
14:25
M
8 °C 6 km 2.400 ft 310° 310° 18 kt METAR EHAM 201225Z 31018KT 280V340 6000 SHRA SCT016 SCT020CB BKN024 08/06 Q1022 BECMG 9999 NSW
13:55
V
9 °C 10 km+ - 310° 310° 18 kt METAR EHAM 201155Z 31018KT 270V340 9999 VCSH FEW018 FEW021CB SCT024 09/06 Q1022 TEMPO 6000 SHRA
13:25
V
10 °C 10 km+ - 320° 320° 19 kt METAR EHAM 201125Z 32019KT 9999 VCSH FEW020TCU SCT024 10/04 Q1022 TEMPO 7000 -SHRA
12:55
V
10 °C 10 km+ - 320° 320° 19 kt METAR EHAM 201055Z 32019KT 9999 VCSH FEW020TCU SCT024 10/04 Q1022 TEMPO 7000 -SHRA
12:25
V
9 °C 10 km+ - 310° 310° 16 kt METAR EHAM 201025Z 31016KT 9999 FEW020TCU SCT024 09/04 Q1022 TEMPO 7000 -SHRA
11:55
V
9 °C 10 km+ - 330° 330° 16 kt METAR EHAM 200955Z 33016KT 300V360 9999 FEW020TCU SCT024 09/04 Q1022 TEMPO 7000 -SHRA
11:25
V
8 °C 10 km+ - 330° 330° 12 kt METAR EHAM 200925Z 33012KT 300V020 9999 VCSH FEW020TCU SCT023 08/04 Q1022 TEMPO 7000 -SHRA
10:55
V
9 °C 10 km+ - 340° 340° 15 kt METAR EHAM 200855Z 34015KT 290V010 9999 VCSH FEW020TCU SCT024 09/04 Q1022 TEMPO 7000 -SHRA
10:25
V
9 °C 10 km+ - 340° 340° 10 kt METAR EHAM 200825Z 34010KT 290V030 9999 VCSH FEW020TCU SCT024 09/04 Q1021 TEMPO 7000 -SHRA
09:55
V
7 °C 10 km+ 4.500 ft 330° 330° 9 kt METAR EHAM 200755Z 33009KT 9999 -SHRA FEW017 FEW020TCU BKN045 07/03 Q1021 TEMPO 7000
09:25
V
6 °C 10 km+ 4.500 ft 350° 350° 10 - 20 kt METAR EHAM 200725Z 35010G20KT 310V030 9999 VCSH FEW017 FEW020TCU BKN045 06/03 Q1021 TEMPO 7000 -SHRA
08:55
V
7 °C 10 km+ - 360° 360° 12 kt METAR EHAM 200655Z 36012KT 300V060 9999 -SHRA FEW017 FEW020TCU SCT030 07/04 Q1021 TEMPO 7000
08:25
V
7 °C 10 km+ - 340° 340° 10 kt METAR EHAM 200625Z 34010KT 290V020 9999 FEW020TCU SCT023 07/04 Q1020 TEMPO 7000 -SHRA
07:55
V
6 °C 10 km+ 4.500 ft 340° 340° 14 kt METAR EHAM 200555Z 34014KT 290V030 9999 -SHRA FEW020TCU SCT022 BKN045 06/03 Q1020 TEMPO 7000
Cambiar esta información